Time;durP1;ratioP1;P1;durP2;ratioP2;P2;SDS_P1;SDS_P2;PMS_P1;PMS_P2;Temp;Humidity;BMP_temperature;BMP_pressure;BME280_temperature;BME280_humidity;BME280_pressure;Samples;Min_cycle;Max_cycle;Signal;HPM_P1;HPM_P2
2022/08/29 00:04:51;;;;;;;0.10;0.10;;;;;;;16.11;100.00;101903.88;10415019;28;20476;-75
2022/08/29 00:09:51;;;;;;;0.10;0.10;;;;;;;16.20;100.00;101902.88;10397210;28;20104;-75
2022/08/29 00:14:52;;;;;;;0.10;0.10;;;;;;;16.23;100.00;101905.22;10414631;28;20017;-75
2022/08/29 00:19:52;;;;;;;0.10;0.10;;;;;;;16.24;100.00;101890.75;10414927;28;20025;-75
2022/08/29 00:24:52;;;;;;;0.10;0.10;;;;;;;16.23;100.00;101897.16;10396309;28;20330;-75
2022/08/29 00:29:53;;;;;;;0.10;0.10;;;;;;;16.20;100.00;101902.00;10396570;28;20745;-75
2022/08/29 00:34:53;;;;;;;0.10;0.10;;;;;;;16.26;100.00;101899.50;10413694;28;20021;-75
2022/08/29 00:39:53;;;;;;;0.10;0.10;;;;;;;16.36;100.00;101901.16;10413747;28;20014;-75
2022/08/29 00:44:54;;;;;;;0.10;0.10;;;;;;;16.41;100.00;101898.81;10414429;28;20030;-76
2022/08/29 00:49:56;;;;;;;0.10;0.10;;;;;;;16.51;100.00;101910.19;10413494;28;20452;-75
2022/08/29 00:54:58;;;;;;;0.10;0.10;;;;;;;16.57;100.00;101917.59;10413393;28;20038;-75
2022/08/29 00:59:59;;;;;;;0.00;0.00;;;;;;;16.63;100.00;101906.13;10412871;28;20021;-75
2022/08/29 01:04:59;;;;;;;0.00;0.00;;;;;;;16.67;100.00;101914.72;10412128;28;20102;-75
2022/08/29 01:10:00;;;;;;;0.10;0.10;;;;;;;16.72;100.00;101920.38;10412508;28;20075;-75
2022/08/29 01:15:07;;;;;;;0.10;0.10;;;;;;;16.77;100.00;101922.59;10411949;28;20377;-75
2022/08/29 01:20:17;;;;;;;0.10;0.10;;;;;;;16.82;100.00;101918.38;10412226;28;20108;-75
2022/08/29 01:25:22;;;;;;;0.10;0.10;;;;;;;16.87;100.00;101924.09;10412111;28;20540;-75
2022/08/29 01:30:22;;;;;;;0.00;0.00;;;;;;;16.89;100.00;101911.28;10412141;28;20017;-75
2022/08/29 01:35:24;;;;;;;0.05;0.05;;;;;;;16.88;100.00;101909.63;10393417;28;20035;-75
2022/08/29 01:40:28;;;;;;;0.10;0.10;;;;;;;16.88;100.00;101914.16;10411725;28;20049;-76
2022/08/29 01:45:28;;;;;;;0.10;0.10;;;;;;;16.89;100.00;101921.22;10411741;28;20025;-75
2022/08/29 01:50:29;;;;;;;0.10;0.10;;;;;;;16.85;100.00;101923.41;10410972;28;20025;-75
2022/08/29 01:55:30;;;;;;;0.10;0.10;;;;;;;16.81;100.00;101924.75;10393155;28;20049;-75
2022/08/29 02:00:30;;;;;;;0.10;0.10;;;;;;;16.83;100.00;101924.59;10411133;28;20045;-75
2022/08/29 02:05:31;;;;;;;0.10;0.10;;;;;;;16.84;100.00;101928.97;10410414;28;20028;-76
2022/08/29 02:10:31;;;;;;;0.00;0.00;;;;;;;16.82;100.00;101925.63;10411015;28;20017;-75
2022/08/29 02:15:31;;;;;;;0.10;0.10;;;;;;;16.82;100.00;101925.63;10409379;28;20068;-75
2022/08/29 02:20:31;;;;;;;0.10;0.10;;;;;;;16.82;100.00;101925.63;10410183;28;20297;-75
2022/08/29 02:25:41;;;;;;;0.10;0.10;;;;;;;16.82;100.00;101917.56;10410100;28;20029;-74
2022/08/29 02:30:45;;;;;;;0.10;0.10;;;;;;;16.86;100.00;101924.25;10410029;28;20025;-74
2022/08/29 02:35:47;;;;;;;0.03;0.03;;;;;;;16.86;100.00;101922.41;10409286;28;20031;-74
2022/08/29 02:40:48;;;;;;;0.10;0.10;;;;;;;16.87;100.00;101924.09;10410214;28;20017;-74
2022/08/29 02:45:49;;;;;;;0.10;0.10;;;;;;;16.87;100.00;101910.63;10409075;28;20116;-74
2022/08/29 02:50:52;;;;;;;0.00;0.00;;;;;;;16.81;100.00;101918.53;10409984;28;20028;-75
2022/08/29 02:55:53;;;;;;;;;;;;;;;16.72;100.00;101910.47;10410084;28;20579;-75
2022/08/29 03:00:53;;;;;;;0.10;0.10;;;;;;;16.62;100.00;101903.63;10409355;28;20003;-75
2022/08/29 03:05:55;;;;;;;0.10;0.10;;;;;;;16.48;100.00;101906.00;10390622;28;20033;-75
2022/08/29 03:10:55;;;;;;;0.10;0.10;;;;;;;16.35;100.00;101912.91;10409089;28;20647;-75
2022/08/29 03:15:56;;;;;;;0.10;0.10;;;;;;;16.23;100.00;101912.44;10408707;28;20036;-75
2022/08/29 03:20:57;;;;;;;0.10;0.10;;;;;;;16.12;100.00;101913.63;10391231;28;20292;-75
2022/08/29 03:25:57;;;;;;;0.10;0.10;;;;;;;16.01;100.00;101922.03;10406343;28;20546;-75
2022/08/29 03:30:57;;;;;;;0.10;0.10;;;;;;;15.92;100.00;101902.38;10415703;28;20021;-75
2022/08/29 03:35:58;;;;;;;0.10;0.10;;;;;;;15.81;100.00;101908.09;10416124;28;20270;-75
2022/08/29 03:40:58;;;;;;;0.10;0.10;;;;;;;15.72;100.00;101923.34;10416526;28;20021;-75
2022/08/29 03:45:58;;;;;;;0.10;0.10;;;;;;;15.68;100.00;101922.03;10416631;28;20033;-74
2022/08/29 03:50:59;;;;;;;0.10;0.10;;;;;;;15.76;100.00;101930.06;10416536;28;20025;-75
2022/08/29 03:55:59;;;;;;;0.00;0.00;;;;;;;15.87;100.00;101930.75;10414556;28;20036;-74
2022/08/29 04:01:00;;;;;;;0.10;0.10;;;;;;;15.94;100.00;101938.00;10404801;28;20032;-75
2022/08/29 04:06:00;;;;;;;0.00;0.00;;;;;;;15.96;100.00;101938.66;10391517;28;20410;-74
2022/08/29 04:11:02;;;;;;;0.10;0.10;;;;;;;15.90;100.00;101939.31;10415143;28;20095;-75
2022/08/29 04:16:14;;;;;;;0.10;0.10;;;;;;;15.90;100.00;101941.16;10394380;28;20030;-75
2022/08/29 04:21:16;;;;;;;0.10;0.10;;;;;;;16.01;100.00;101948.91;10415347;28;20017;-75
2022/08/29 04:26:18;;;;;;;0.10;0.10;;;;;;;16.08;100.00;101955.28;10414577;28;20395;-74
2022/08/29 04:31:20;;;;;;;0.10;0.10;;;;;;;16.12;100.00;101966.56;10413850;28;20032;-75
2022/08/29 04:36:20;;;;;;;0.00;0.00;;;;;;;16.11;100.00;101965.69;10412637;28;20384;-75
2022/08/29 04:41:20;;;;;;;0.10;0.10;;;;;;;16.03;100.00;101979.16;10412689;28;20014;-75
2022/08/29 04:46:21;;;;;;;0.00;0.00;;;;;;;15.93;100.00;101978.44;10413373;28;20025;-75
2022/08/29 04:51:21;;;;;;;0.10;0.10;;;;;;;15.81;100.00;101984.16;10413557;28;20024;-75
2022/08/29 04:56:21;;;;;;;0.10;0.10;;;;;;;15.75;100.00;101982.13;10414969;28;20396;-74
2022/08/29 05:01:24;;;;;;;0.00;0.00;;;;;;;16.39;100.00;101984.19;10419934;28;20553;-75
2022/08/29 05:06:24;;;;;;;0.10;0.10;;;;;;;17.54;100.00;101995.44;10413098;28;20042;-74
2022/08/29 05:11:24;;;;;;;0.10;0.10;;;;;;;17.84;100.00;101999.19;10395041;28;20376;-74
2022/08/29 05:16:25;;;;;;;0.10;0.10;;;;;;;18.52;100.00;102003.69;10411652;28;20031;-74
2022/08/29 05:21:30;;;;;;;0.10;0.10;;;;;;;19.85;100.00;102002.00;10412907;28;20047;-74
2022/08/29 05:26:34;;;;;;;0.10;0.10;;;;;;;21.37;100.00;102006.91;10412155;28;20053;-74
2022/08/29 05:31:40;;;;;;;0.10;0.10;;;;;;;22.30;100.00;101999.84;10413152;28;20021;-74
2022/08/29 05:36:41;;;;;;;0.10;0.10;;;;;;;23.26;100.00;102014.75;10412244;28;20017;-74
2022/08/29 05:41:41;;;;;;;0.00;0.00;;;;;;;24.06;100.00;102011.66;10412656;28;20383;-74
2022/08/29 05:46:42;;;;;;;0.00;0.00;;;;;;;25.01;95.21;102020.44;10412633;28;20108;-74
2022/08/29 05:51:42;;;;;;;0.00;0.00;;;;;;;25.48;90.24;102026.22;10411197;28;20021;-74
2022/08/29 05:56:43;;;;;;;0.10;0.10;;;;;;;25.80;83.22;102020.50;10412152;28;20029;-74
2022/08/29 06:01:45;;;;;;;0.10;0.10;;;;;;;25.92;83.35;102026.06;10410061;28;20681;-74
2022/08/29 06:06:46;;;;;;;0.10;0.10;;;;;;;25.66;83.52;102022.63;10418346;28;20075;-74
2022/08/29 06:11:48;;;;;;;0.10;0.10;;;;;;;25.99;80.18;102026.78;10394806;28;20435;-74
2022/08/29 06:16:49;;;;;;;0.10;0.10;;;;;;;26.59;79.97;102034.88;10407954;28;20037;-74
2022/08/29 06:21:53;;;;;;;0.10;0.10;;;;;;;26.48;76.74;102029.38;10410789;28;20123;-74
2022/08/29 06:26:53;;;;;;;0.10;0.10;;;;;;;26.41;79.60;102034.94;10409437;28;20325;-74
2022/08/29 06:31:57;;;;;;;0.10;0.10;;;;;;;26.52;77.95;102036.06;10410399;28;20017;-75
2022/08/29 06:36:58;;;;;;;0.00;0.00;;;;;;;26.20;79.24;102041.78;10410331;28;20345;-75
2022/08/29 06:41:58;;;;;;;0.10;0.10;;;;;;;26.43;76.09;102051.94;10408637;28;20018;-74
2022/08/29 06:46:58;;;;;;;0.10;0.10;;;;;;;26.67;76.92;102051.97;10410148;28;20032;-74
2022/08/29 06:51:59;;;;;;;0.10;0.10;;;;;;;26.59;75.46;102048.53;10409500;28;20751;-75
2022/08/29 06:56:59;;;;;;;0.10;0.10;;;;;;;26.49;75.49;102053.72;10409595;28;20396;-75
2022/08/29 07:01:59;;;;;;;0.10;0.10;;;;;;;26.34;74.24;102053.34;10409016;28;20489;-75
2022/08/29 07:07:00;;;;;;;0.10;0.10;;;;;;;26.86;73.81;102051.63;10409007;28;20211;-74
2022/08/29 07:12:00;;;;;;;0.10;0.10;;;;;;;27.13;64.30;102064.78;10409091;28;20293;-74
2022/08/29 07:17:01;;;;;;;0.10;0.10;;;;;;;27.28;65.75;102056.09;10408555;28;20072;-74
2022/08/29 07:22:01;;;;;;;0.10;0.10;;;;;;;26.99;65.17;102057.91;10408827;28;20024;-75
2022/08/29 07:27:01;;;;;;;0.10;0.10;;;;;;;26.56;66.82;102070.88;10408576;28;20021;-75
2022/08/29 07:32:02;;;;;;;0.10;0.10;;;;;;;26.23;65.92;102059.59;10408689;28;20024;-75
2022/08/29 07:37:03;;;;;;;0.10;0.10;;;;;;;26.49;67.59;102066.53;10411207;28;20059;-75
2022/08/29 07:42:03;;;;;;;;;;;;;;;26.56;67.68;102068.16;10408700;28;20017;-75
2022/08/29 07:47:04;;;;;;;0.10;0.10;;;;;;;25.52;71.44;102065.59;10407772;28;19940;-74
2022/08/29 07:52:04;;;;;;;0.10;0.10;;;;;;;24.43;76.10;102066.25;10407826;28;20510;-75
2022/08/29 07:57:05;;;;;;;0.10;0.10;;;;;;;22.97;83.23;102067.72;10405948;28;20079;-75
2022/08/29 08:02:05;;;;;;;0.10;0.10;;;;;;;22.65;84.54;102063.94;10407215;28;20018;-74
2022/08/29 08:07:05;;;;;;;0.10;0.10;;;;;;;22.13;88.09;102072.63;10405408;28;20550;-74
2022/08/29 08:12:06;;;;;;;0.00;0.00;;;;;;;21.27;95.26;102071.47;10405496;28;20022;-74
2022/08/29 08:17:07;;;;;;;0.10;0.10;;;;;;;20.91;99.14;102077.88;10411452;28;20048;-73
2022/08/29 08:22:08;;;;;;;0.10;0.10;;;;;;;20.77;100.00;102085.09;10413678;28;20048;-73
2022/08/29 08:27:08;;;;;;;0.00;0.00;;;;;;;21.65;97.02;102074.59;10413980;28;20553;-73
2022/08/29 08:32:09;;;;;;;0.00;0.00;;;;;;;21.74;94.54;102075.25;10413862;28;20074;-73
2022/08/29 08:37:10;;;;;;;0.00;0.00;;;;;;;21.43;96.15;102076.56;10404169;28;20049;-73
2022/08/29 08:42:29;;;;;;;0.00;0.00;;;;;;;21.02;97.79;102075.47;10413332;28;20022;-73
2022/08/29 08:47:34;;;;;;;0.10;0.10;;;;;;;21.19;99.01;102084.13;10413090;28;20029;-74
2022/08/29 08:52:50;;;;;;;0.00;0.00;;;;;;;20.95;100.00;102090.84;10413003;28;20022;-73
2022/08/29 08:58:01;;;;;;;0.10;0.10;;;;;;;21.14;99.24;102094.72;10413278;28;20504;-73
2022/08/29 09:03:17;;;;;;;0.00;0.00;;;;;;;20.88;100.00;102091.81;10412504;28;20473;-73
2022/08/29 09:08:33;;;;;;;0.10;0.10;;;;;;;20.93;100.00;102097.50;10411998;28;20072;-73
2022/08/29 09:13:54;;;;;;;0.00;0.00;;;;;;;20.96;100.00;102097.09;10412539;28;20041;-74
2022/08/29 09:19:02;;;;;;;0.00;0.00;;;;;;;20.85;100.00;102106.59;10411789;28;20029;-74
2022/08/29 09:24:07;;;;;;;0.10;0.10;;;;;;;20.66;100.00;102102.69;10411237;28;20119;-74
2022/08/29 09:29:10;;;;;;;0.00;0.00;;;;;;;20.70;100.00;102103.13;10411573;28;20036;-73
2022/08/29 09:34:14;;;;;;;0.00;0.00;;;;;;;20.90;100.00;102104.13;10410717;28;20020;-73
2022/08/29 09:39:14;;;;;;;0.10;0.10;;;;;;;21.18;100.00;102100.59;10393224;28;20480;-74
2022/08/29 09:44:28;;;;;;;0.00;0.00;;;;;;;21.18;97.94;102101.44;10409837;28;20033;-74
2022/08/29 09:49:28;;;;;;;0.00;0.00;;;;;;;21.07;97.06;102109.25;10410896;28;20290;-74
2022/08/29 09:54:32;;;;;;;0.00;0.00;;;;;;;21.02;97.55;102107.13;10406387;28;20087;-73
2022/08/29 09:59:57;;;;;;;0.00;0.00;;;;;;;20.99;96.64;102099.41;10409700;28;20489;-73
2022/08/29 10:05:08;;;;;;;0.00;0.00;;;;;;;21.09;95.73;102110.75;10399444;28;20050;-73
2022/08/29 10:10:24;;;;;;;0.00;0.00;;;;;;;21.02;96.06;102113.38;10409966;28;20044;-74
2022/08/29 10:15:37;;;;;;;0.10;0.10;;;;;;;20.78;95.98;102108.41;10409381;28;20024;-74
2022/08/29 10:21:15;;;;;;;0.00;0.00;;;;;;;20.96;96.20;102121.47;10408342;28;20039;-74
2022/08/29 10:26:37;;;;;;;0.00;0.00;;;;;;;20.94;95.91;102126.22;10408930;28;20111;-74
2022/08/29 10:31:45;;;;;;;0.00;0.00;;;;;;;20.67;100.00;102131.44;10409618;28;20045;-74
2022/08/29 10:36:51;;;;;;;0.00;0.00;;;;;;;20.38;100.00;102136.94;10407360;28;20053;-74
2022/08/29 10:42:03;;;;;;;0.00;0.00;;;;;;;20.29;100.00;102145.19;10391194;28;20022;-74
2022/08/29 10:47:03;;;;;;;0.00;0.00;;;;;;;20.32;100.00;102144.78;10408393;28;20025;-74
2022/08/29 10:52:17;;;;;;;0.10;0.10;;;;;;;20.55;98.64;102138.41;10408697;28;20030;-74
2022/08/29 10:57:56;;;;;;;0.10;0.10;;;;;;;20.56;100.00;102149.03;10408169;28;20037;-74
2022/08/29 11:03:12;;;;;;;0.10;0.10;;;;;;;20.73;96.58;102146.06;10408580;28;20026;-74
2022/08/29 11:08:29;;;;;;;0.10;0.10;;;;;;;20.90;93.84;102154.75;10389302;28;20044;-74
2022/08/29 11:13:37;;;;;;;0.00;0.00;;;;;;;21.03;93.03;102153.00;10407573;28;20018;-74
2022/08/29 11:18:42;;;;;;;0.00;0.00;;;;;;;21.34;91.34;102138.19;10407653;28;20025;-75
2022/08/29 11:23:45;;;;;;;0.00;0.00;;;;;;;21.58;89.46;102128.75;10407917;28;20018;-74
2022/08/29 11:28:53;;;;;;;0.00;0.00;;;;;;;21.74;87.97;102135.75;10406925;28;20083;-74
2022/08/29 11:34:02;;;;;;;0.10;0.10;;;;;;;21.86;85.81;102134.13;10403947;28;20017;-74
2022/08/29 11:39:21;;;;;;;0.10;0.10;;;;;;;21.87;85.30;102145.81;10407003;28;20025;-74
2022/08/29 11:44:30;;;;;;;0.03;0.03;;;;;;;22.06;85.76;102147.75;10406961;28;20051;-75
2022/08/29 11:49:36;;;;;;;0.00;0.00;;;;;;;21.85;85.99;102156.03;10409965;28;20021;-74
2022/08/29 11:54:38;;;;;;;0.00;0.00;;;;;;;21.59;87.31;102149.44;10415187;28;20037;-75
2022/08/29 11:59:47;;;;;;;0.00;0.00;;;;;;;21.48;87.88;102158.13;10413717;28;20109;-75
2022/08/29 12:04:56;;;;;;;0.00;0.00;;;;;;;21.29;88.26;102170.47;10414627;28;20079;-75
2022/08/29 12:09:59;;;;;;;0.10;0.10;;;;;;;21.30;88.48;102172.16;10414743;28;20026;-75
2022/08/29 12:15:00;;;;;;;0.00;0.00;;;;;;;21.19;90.88;102178.13;10413228;28;20480;-75
2022/08/29 12:20:04;;;;;;;0.00;0.00;;;;;;;21.10;91.53;102163.88;10414561;28;20038;-74
2022/08/29 12:25:26;;;;;;;0.00;0.00;;;;;;;20.85;92.80;102168.03;10412769;28;20040;-74
2022/08/29 12:30:30;;;;;;;0.00;0.00;;;;;;;20.73;95.47;102173.13;10412749;28;20021;-75
2022/08/29 12:35:58;;;;;;;0.10;0.10;;;;;;;20.63;95.41;102172.63;10412664;28;20025;-75
2022/08/29 12:41:24;;;;;;;0.00;0.00;;;;;;;20.59;95.91;102169.47;10412853;28;20480;-75
2022/08/29 12:46:27;;;;;;;0.05;0.05;;;;;;;20.81;92.09;102167.59;10412870;28;20508;-75
2022/08/29 12:51:49;;;;;;;0.10;0.10;;;;;;;20.84;91.51;102175.34;10413064;28;20080;-75
2022/08/29 12:56:51;;;;;;;0.00;0.00;;;;;;;20.85;93.94;102176.16;10414172;28;20488;-75
2022/08/29 13:01:53;;;;;;;0.10;0.10;;;;;;;20.88;92.17;102170.34;10412450;28;20397;-75
2022/08/29 13:06:57;;;;;;;0.00;0.00;;;;;;;20.79;94.45;102166.94;10411115;28;20155;-75
2022/08/29 13:12:21;;;;;;;0.00;0.00;;;;;;;20.92;93.44;102175.19;10411651;28;20025;-75
2022/08/29 13:17:25;;;;;;;0.00;0.00;;;;;;;21.19;93.75;102168.13;10411099;28;20385;-74
2022/08/29 13:22:25;;;;;;;0.00;0.00;;;;;;;21.30;93.37;102165.91;10412245;28;20045;-74
2022/08/29 13:27:25;;;;;;;0.00;0.00;;;;;;;21.41;91.23;102154.53;10411249;28;20017;-75
2022/08/29 13:32:26;;;;;;;0.00;0.00;;;;;;;21.45;88.66;102147.69;10411330;28;20025;-75
2022/08/29 13:37:31;;;;;;;0.00;0.00;;;;;;;21.48;90.62;102148.13;10392369;28;20037;-75
2022/08/29 13:42:31;;;;;;;0.10;0.10;;;;;;;21.62;88.38;102137.38;10410784;28;20388;-74
2022/08/29 13:47:44;;;;;;;0.00;0.00;;;;;;;21.66;86.16;102149.47;10410747;28;20021;-75
2022/08/29 13:52:45;;;;;;;0.05;0.05;;;;;;;21.64;86.45;102141.56;10410306;28;20534;-75
2022/08/29 13:57:50;;;;;;;0.00;0.00;;;;;;;21.66;86.55;102139.44;10410079;28;20030;-75
2022/08/29 14:02:50;;;;;;;0.00;0.00;;;;;;;21.87;88.65;102138.50;10410186;28;20392;-74
2022/08/29 14:07:50;;;;;;;0.07;0.07;;;;;;;22.24;87.18;102130.09;10409587;28;20024;-74
2022/08/29 14:12:51;;;;;;;0.10;0.10;;;;;;;22.33;85.58;102124.28;10409437;28;20017;-75
2022/08/29 14:17:51;;;;;;;0.00;0.00;;;;;;;21.88;88.18;102133.94;10406898;28;20492;-75
2022/08/29 14:22:51;;;;;;;0.03;0.03;;;;;;;21.26;92.35;102130.22;10409412;28;20024;-74
2022/08/29 14:27:52;;;;;;;0.00;0.00;;;;;;;21.01;93.67;102127.13;10408902;28;20025;-74
2022/08/29 14:32:52;;;;;;;0.00;0.00;;;;;;;20.95;95.69;102125.22;10409566;28;20009;-74
2022/08/29 14:37:54;;;;;;;0.10;0.10;;;;;;;20.79;92.50;102129.88;10408729;28;20469;-74
2022/08/29 14:42:54;;;;;;;0.05;0.05;;;;;;;20.73;93.25;102125.22;10408953;28;20032;-74
2022/08/29 14:47:55;;;;;;;0.00;0.00;;;;;;;20.80;94.85;102122.59;10390931;28;20120;-74
2022/08/29 14:52:55;;;;;;;0.00;0.00;;;;;;;20.94;92.77;102126.22;10408542;28;20057;-74
2022/08/29 14:57:56;;;;;;;0.00;0.00;;;;;;;20.86;92.15;102123.69;10408172;28;20076;-74
2022/08/29 15:02:57;;;;;;;0.10;0.10;;;;;;;20.76;94.13;102118.59;10408523;28;20367;-74
2022/08/29 15:07:57;;;;;;;0.00;0.00;;;;;;;21.03;93.15;102123.22;10389921;28;20025;-75
2022/08/29 15:12:57;;;;;;;0.00;0.00;;;;;;;21.17;87.22;102117.88;10390502;28;20049;-74
2022/08/29 15:18:00;;;;;;;0.00;0.00;;;;;;;21.07;89.57;102120.09;10407395;28;20087;-74
2022/08/29 15:23:00;;;;;;;0.10;0.10;;;;;;;20.96;87.83;102126.88;10412011;28;20040;-74
2022/08/29 15:28:01;;;;;;;0.10;0.10;;;;;;;21.04;91.18;102124.03;10421146;28;20040;-74
2022/08/29 15:33:02;;;;;;;0.00;0.00;;;;;;;20.83;86.98;102137.59;10421215;28;20373;-74
2022/08/29 15:38:02;;;;;;;0.00;0.00;;;;;;;20.52;91.60;102125.22;10421194;28;20113;-74
2022/08/29 15:43:03;;;;;;;0.10;0.10;;;;;;;20.28;92.00;102119.16;10421213;28;20104;-74
2022/08/29 15:48:04;;;;;;;0.00;0.00;;;;;;;20.26;93.84;102128.50;10420892;28;20029;-73
2022/08/29 15:53:05;;;;;;;0.00;0.00;;;;;;;20.16;94.99;102126.13;10419683;28;20029;-74
2022/08/29 15:58:05;;;;;;;0.10;0.10;;;;;;;20.21;95.18;102125.53;10420600;28;20033;-74
2022/08/29 16:03:06;;;;;;;0.00;0.00;;;;;;;20.35;94.65;102119.22;10420886;28;20018;-74
2022/08/29 16:08:07;;;;;;;0.00;0.00;;;;;;;20.28;90.33;102127.28;10420134;28;20076;-74
2022/08/29 16:13:07;;;;;;;0.10;0.10;;;;;;;20.29;91.15;102134.34;10403712;28;20033;-74
2022/08/29 16:18:08;;;;;;;0.00;0.00;;;;;;;20.24;91.48;102125.97;10420250;28;20028;-74
2022/08/29 16:23:09;;;;;;;0.00;0.00;;;;;;;20.13;90.37;102130.03;10420484;28;20641;-74
2022/08/29 16:28:09;;;;;;;0.00;0.00;;;;;;;20.01;88.36;102126.16;10418761;28;20510;-74
2022/08/29 16:33:09;;;;;;;0.10;0.10;;;;;;;19.94;89.57;102127.09;10420041;28;20048;-74
2022/08/29 16:38:10;;;;;;;0.00;0.00;;;;;;;19.88;90.02;102121.41;10412984;28;20044;-74
2022/08/29 16:43:11;;;;;;;0.00;0.00;;;;;;;19.71;90.48;102119.09;10413288;28;20318;-74
2022/08/29 16:48:11;;;;;;;0.00;0.00;;;;;;;19.55;91.24;102120.97;10413241;28;20035;-74
2022/08/29 16:53:11;;;;;;;0.10;0.10;;;;;;;19.36;93.83;102113.41;10414177;28;20584;-74
2022/08/29 17:03:31;;;;;;;0.00;0.00;;;;;;;18.95;95.65;102119.22;10408104;28;20284;-73
2022/08/29 17:18:33;;;;;;;0.00;0.00;;;;;;;18.47;97.71;102124.81;10412278;28;20311;-73
2022/08/29 17:23:35;;;;;;;0.10;0.10;;;;;;;18.29;99.05;102119.69;10410398;28;20476;-73
2022/08/29 17:28:37;;;;;;;0.10;0.10;;;;;;;18.13;98.82;102125.22;10410516;28;20023;-73
2022/08/29 17:33:37;;;;;;;0.00;0.00;;;;;;;17.97;99.69;102126.13;10407984;28;20021;-73
2022/08/29 17:38:40;;;;;;;0.10;0.10;;;;;;;17.78;100.00;102131.97;10410903;28;20025;-73
2022/08/29 17:43:41;;;;;;;0.10;0.10;;;;;;;17.58;100.00;102134.19;10410720;28;20036;-73
2022/08/29 17:48:42;;;;;;;0.10;0.10;;;;;;;17.39;100.00;102135.41;10409824;28;20021;-73
2022/08/29 17:53:44;;;;;;;0.10;0.10;;;;;;;17.16;100.00;102143.38;10410943;28;20180;-73
2022/08/29 17:58:44;;;;;;;0.10;0.10;;;;;;;16.97;100.00;102141.88;10410336;28;20476;-73
2022/08/29 18:03:45;;;;;;;0.00;0.00;;;;;;;16.80;100.00;102145.59;10408290;28;20026;-73
2022/08/29 18:08:45;;;;;;;0.10;0.10;;;;;;;16.60;100.00;102140.50;10409542;28;20025;-73
2022/08/29 18:13:46;;;;;;;0.10;0.10;;;;;;;16.38;100.00;102146.53;10408384;28;20463;-73
2022/08/29 18:18:46;;;;;;;0.10;0.10;;;;;;;16.14;100.00;102142.75;10409525;28;20022;-73
2022/08/29 18:23:47;;;;;;;0.10;0.10;;;;;;;15.92;100.00;102146.06;10409834;28;20021;-73
2022/08/29 18:28:47;;;;;;;0.10;0.10;;;;;;;15.83;100.00;102153.25;10408151;28;20496;-75
2022/08/29 18:33:48;;;;;;;0.10;0.10;;;;;;;15.74;100.00;102154.22;10405191;28;20025;-73
2022/08/29 18:38:49;;;;;;;0.10;0.10;;;;;;;15.65;100.00;102169.41;10408636;28;20039;-74
2022/08/29 18:43:50;;;;;;;0.10;0.10;;;;;;;15.53;100.00;102167.97;10408968;28;21088;-74
2022/08/29 18:48:51;;;;;;;0.10;0.10;;;;;;;15.40;100.00;102177.31;10407643;28;20017;-75
2022/08/29 18:53:52;;;;;;;0.10;0.10;;;;;;;15.10;100.00;102180.47;10408592;28;20384;-75
2022/08/29 18:58:52;;;;;;;0.10;0.10;;;;;;;14.80;100.00;102187.06;10408617;28;20067;-75
2022/08/29 19:03:53;;;;;;;0.10;0.10;;;;;;;14.74;100.00;102180.47;10407485;28;20025;-74
2022/08/29 19:08:55;;;;;;;0.10;0.10;;;;;;;14.56;100.00;102188.53;10408350;28;20018;-74
2022/08/29 19:13:55;;;;;;;0.10;0.10;;;;;;;14.34;100.00;102191.59;10409068;28;20021;-74
2022/08/29 19:18:55;;;;;;;0.10;0.10;;;;;;;14.26;100.00;102184.31;10409726;28;20029;-74
2022/08/29 19:23:56;;;;;;;0.10;0.10;;;;;;;14.19;100.00;102186.75;10407484;28;20013;-75
2022/08/29 19:28:58;;;;;;;0.15;0.15;;;;;;;14.17;100.00;102179.88;10407978;28;20079;-74
2022/08/29 19:33:59;;;;;;;0.10;0.10;;;;;;;14.17;100.00;102188.75;10406001;28;20026;-75
2022/08/29 19:38:59;;;;;;;0.10;0.10;;;;;;;14.18;100.00;102195.78;10407582;28;20025;-75
2022/08/29 19:44:00;;;;;;;0.00;0.00;;;;;;;14.25;100.00;102194.22;10408437;28;20033;-75
2022/08/29 19:49:00;;;;;;;0.10;0.10;;;;;;;14.31;100.00;102192.78;10408320;28;20045;-74
2022/08/29 19:54:02;;;;;;;0.10;0.10;;;;;;;14.34;100.00;102189.78;10407344;28;20049;-74
2022/08/29 19:59:02;;;;;;;0.10;0.10;;;;;;;14.35;100.00;102196.81;10407993;28;20029;-75
2022/08/29 20:04:02;;;;;;;0.10;0.10;;;;;;;14.33;100.00;102193.44;10405469;28;20026;-75
2022/08/29 20:09:04;;;;;;;0.10;0.10;;;;;;;14.31;100.00;102199.94;10402650;28;20034;-75
2022/08/29 20:14:06;;;;;;;0.10;0.10;;;;;;;14.26;100.00;102197.72;10415412;28;20389;-74
2022/08/29 20:19:07;;;;;;;0.10;0.10;;;;;;;14.24;100.00;102205.06;10415160;28;20021;-75
2022/08/29 20:24:08;;;;;;;0.20;0.20;;;;;;;14.20;100.00;102201.00;10414656;28;20040;-74
2022/08/29 20:29:10;;;;;;;0.10;0.10;;;;;;;14.15;100.00;102205.97;10414743;28;20177;-75
2022/08/29 20:34:11;;;;;;;0.10;0.10;;;;;;;14.11;100.00;102213.47;10411966;28;20403;-76
2022/08/29 20:39:15;;;;;;;0.10;0.10;;;;;;;14.08;100.00;102220.94;10413593;28;20026;-75
2022/08/29 20:44:17;;;;;;;0.10;0.10;;;;;;;14.07;100.00;102219.25;10413665;28;20018;-76
2022/08/29 20:49:20;;;;;;;0.10;0.10;;;;;;;14.05;100.00;102227.47;10414032;28;20040;-75
2022/08/29 20:54:23;;;;;;;0.10;0.10;;;;;;;14.00;100.00;102219.84;10411214;28;20014;-75
2022/08/29 20:59:24;;;;;;;0.10;0.10;;;;;;;13.94;100.00;102223.13;10412262;28;20063;-74
2022/08/29 21:09:45;;;;;;;0.05;0.05;;;;;;;13.84;100.00;102218.78;10413463;28;20111;-75
2022/08/29 21:14:46;;;;;;;0.10;0.10;;;;;;;13.81;100.00;102222.59;10412087;28;20029;-74
2022/08/29 21:19:46;;;;;;;0.08;0.08;;;;;;;13.84;100.00;102233.00;10412774;28;20599;-74
2022/08/29 21:24:47;;;;;;;0.10;0.10;;;;;;;13.81;100.00;102235.97;10411816;28;20025;-74
2022/08/29 21:29:47;;;;;;;0.10;0.10;;;;;;;13.82;100.00;102237.69;10412414;28;20745;-74
2022/08/29 21:34:48;;;;;;;0.10;0.10;;;;;;;13.74;100.00;102233.06;10395293;28;20029;-74
2022/08/29 21:39:48;;;;;;;0.00;0.00;;;;;;;13.66;100.00;102240.13;10411072;28;20040;-75
2022/08/29 21:44:49;;;;;;;0.10;0.10;;;;;;;13.56;100.00;102246.34;10412294;28;20078;-75
2022/08/29 21:49:50;;;;;;;0.10;0.10;;;;;;;13.44;100.00;102244.84;10411303;28;20025;-74
2022/08/29 21:54:50;;;;;;;0.10;0.10;;;;;;;13.35;100.00;102240.31;10410928;28;20036;-74
2022/08/29 21:59:51;;;;;;;0.10;0.10;;;;;;;13.31;100.00;102244.28;10411064;28;20472;-74
2022/08/29 22:04:51;;;;;;;0.10;0.10;;;;;;;13.26;100.00;102239.34;10402652;28;20042;-74
2022/08/29 22:09:52;;;;;;;0.10;0.10;;;;;;;13.23;100.00;102238.75;10407988;28;20043;-74
2022/08/29 22:20:16;;;;;;;;;;;;;;;13.21;100.00;102232.72;10409302;28;20047;-74
2022/08/29 22:25:17;;;;;;;0.10;0.10;;;;;;;13.17;100.00;102239.31;10409221;28;19913;-74
2022/08/29 22:30:17;;;;;;;0.05;0.05;;;;;;;13.10;100.00;102231.88;10409629;28;20021;-74
2022/08/29 22:35:18;;;;;;;0.10;0.10;;;;;;;13.09;100.00;102218.66;10405834;28;20104;-74
2022/08/29 22:40:18;;;;;;;0.10;0.10;;;;;;;13.10;100.00;102233.69;10408578;28;20021;-74
2022/08/29 22:45:19;;;;;;;0.10;0.10;;;;;;;13.07;100.00;102237.50;10409848;28;20044;-75
2022/08/29 22:50:23;;;;;;;0.10;0.10;;;;;;;13.04;100.00;102248.47;10409199;28;20018;-75
2022/08/29 22:55:24;;;;;;;0.10;0.10;;;;;;;12.98;100.00;102243.69;10407355;28;20267;-74
2022/08/29 23:00:25;;;;;;;0.10;0.10;;;;;;;12.83;100.00;102239.75;10408400;28;20148;-74
2022/08/29 23:05:25;;;;;;;0.10;0.10;;;;;;;12.78;100.00;102240.16;10403562;28;20542;-74
2022/08/29 23:10:26;;;;;;;0.10;0.10;;;;;;;12.73;100.00;102244.22;10408571;28;20074;-75
2022/08/29 23:15:26;;;;;;;0.10;0.10;;;;;;;12.67;100.00;102233.09;10408183;28;20083;-74
2022/08/29 23:20:27;;;;;;;0.10;0.10;;;;;;;12.65;100.00;102242.25;10408270;28;20018;-74
2022/08/29 23:25:27;;;;;;;0.10;0.10;;;;;;;12.66;100.00;102244.78;10407539;28;20018;-75
2022/08/29 23:30:27;;;;;;;0.00;0.00;;;;;;;12.69;100.00;102247.19;10408155;28;20036;-74
2022/08/29 23:35:28;;;;;;;0.10;0.10;;;;;;;12.74;100.00;102237.88;10402845;28;20100;-74